AirNav   Pilot Hours Calculator
 
 963 users online  

96G Cowley Field Airport
Sandusky, Michigan, USA

GOING TO SANDUSKY?


FAA INFORMATION EFFECTIVE 11 AUGUST 2022

Location

FAA Identifier: 96G
Lat/Long: 43-22-32.6000N 082-49-07.8000W
43-22.543333N 082-49.130000W
43.3757222,-82.8188333
(estimated)
Elevation: 770 ft. / 235 m (estimated)
Variation: 07W (1985)
From city: 3 miles S of SANDUSKY, MI
Time zone: UTC -4 (UTC -5 during Standard Time)
Zip code: 48471

Airport Operations

Airport use: Open to the public
Activation date: 04/1971
Control tower: no
ARTCC: CLEVELAND CENTER
FSS: LANSING FLIGHT SERVICE STATION
NOTAMs facility: LAN (NOTAM-D service available)
Attendance: IREG
Wind indicator: yes
Segmented circle: no

Airport Communications

CTAF: 122.9

Airport Services

Parking: tiedowns
Airframe service: NONE
Powerplant service: NONE
Bottled oxygen: NONE
Bulk oxygen: NONE

Runway Information

Runway 9/27

Dimensions: 2600 x 60 ft. / 792 x 18 m
Surface: turf, in good condition
Runway edge markings: 3 FT YELLOW CONES.
RUNWAY 9  RUNWAY 27
Latitude: 43-22.536667N43-22.550000N
Longitude: 082-49.423333W082-48.836667W
Elevation: 770.0 ft.768.0 ft.
Traffic pattern: leftleft
Runway heading: 095 magnetic, 088 true275 magnetic, 268 true
Runway end identifier lights: nono

Airport Ownership and Management from official FAA records

Ownership: Privately-owned
Owner: DALE COWLEY
1515 S SANDUSKY RD
SANDUSKY, MI 48471-8956
Phone 810-837-0111
Manager: DALE COWLEY
1515 S SANDUSKY RD
SANDUSKY, MI 48471-8956
Phone 810-837-0111
RESIDES ON ARPT PREMISES.

Airport Operational Statistics

Aircraft based on the field: 1
Single engine airplanes: 1
    
Aircraft operations: 60/year *
83% transient general aviation
17% local general aviation
* for 12-month period ending 31 December 2021

Additional Remarks

DEER & LRG BIRDS ON & INVOF ARPT.
PWR POLES IN CLOSE PROXIMITY ALG TWY ON WEST END.
FOR CD CTC CLEVELAND ARTCC AT 440-774-0224/0490.
SNOW REMOVAL IREG, CALL AMGR TO VFY CONDS.

Instrument Procedures

There are no published instrument procedures at 96G.

Some nearby airports with instrument procedures:

77G - Marlette Township Airport (12 nm W)
KBAX - Huron County Memorial Airport (25 nm N)
D95 - Dupont/Lapeer Airport (27 nm SW)
KCFS - Tuscola Area Airport (28 nm W)
KPHN - St Clair County International Airport (31 nm SE)
 
Loc | Ops | Rwys | IFR | FBO | Links
Com | Nav | Svcs | Stats | Notes
Area around 96G (Cowley Field Airport)
 
Road maps at: MapQuest Bing Google
 
Aerial photo
WARNING: Photo may not be current or correct
Aerial photo of 96G (Cowley Field Airport)
Photo by Roy Carlson, Plainwell, MI

Do you have a better or more recent aerial photo of Cowley Field Airport that you would like to share? If so, please send us your photo.

 
Sectional chart

 
Airport distance calculator
Flying to Cowley Field Airport? Find the distance to fly.

From to 96G

Sunrise and sunset
Times for 13-Aug-2022
 Local
(UTC-4)
 Zulu
(UTC)
Morning civil twilight06:0410:04
Sunrise06:3510:35
Sunset20:3700:37
Evening civil twilight21:0801:08

Current date and time
Zulu (UTC)  14-Aug-2022 01:48:51
Local (UTC-4)  13-Aug-2022 21:48:51
 
METAR
KBAX 
25nm N 
140135Z AUTO 00000KT 10SM SCT070 OVC085 17/13 A3010 RMK AO2 T01700125
KD95 
27nm SW 
140135Z AUTO 00000KT 10SM OVC095 17/14 A3011 RMK AO2 T01660138
KCFS 
28nm W 
140135Z AUTO 00000KT 10SM OVC075 15/13 A3011 RMK AO2 T01460133
KPHN 
31nm SE 
140135Z AUTO 00000KT 10SM OVC090 18/14 A3010 RMK AO2
CYZR 
32nm SE 
140100Z AUTO 05002KT 9SM BKN110 OVC130 19/16 A3009 RMK SLP189 DENSITY ALT 1100FT
KP58 
38nm N 
140055Z AUTO 27004KT 18/14 A3009 RMK AO1 SLP184 T01830144
KMTC 
46nm S 
140056Z 00000KT 10SM FEW035 OVC080 20/15 A3006 RMK AO2A SLP182 T01950151
KHYX 
46nm W 
140135Z AUTO 00000KT 10SM OVC048 16/12 A3011 RMK AO2 T01620121
KFNT 
48nm SW 
140053Z AUTO 26003KT 10SM BKN065 OVC080 17/13 A3010 RMK AO2 SLP193 T01670128
KPTK 
50nm SW 
140053Z 31003KT 10SM FEW025 OVC070 18/14 A3010 RMK AO2 SLP190 T01780139
TAF
CYZR 
32nm SE 
131940Z 1320/1402 22008KT P6SM SCT080 OVC110 TEMPO 1320/1402 P6SM -SHRA BKN060 OVC080 RMK FCST BASED ON AUTO OBS. NXT FCST BY 140800Z
NOTAMs
Click for the latest NOTAMs
NOTAMs are issued by the DoD/FAA and will open in a separate window not controlled by AirNav.

 

 
 

Would you like to see your business listed on this page?

 If your business provides an interesting product or service to pilots, flight crews, aircraft, or users of the Cowley Field Airport, you should consider listing it here.  To start the listing process, click on the button below
 
Add a business
 

Other Pages about Cowley Field Airport

Page from the Michigan Airport Directory (PDF)
 
Update a link
 
Copyright © AirNav, LLC. All rights reserved. Privacy Policy  Contact